createdAt,value
2022-11-24T00:01:07.966Z,79.55
2022-11-24T00:03:35.270Z,80.38
2022-11-24T00:06:11.020Z,79.91
2022-11-24T00:08:39.851Z,79.66
2022-11-24T00:11:15.532Z,79.36
2022-11-24T00:13:44.176Z,76.86
2022-11-24T00:16:17.884Z,77.29
2022-11-24T00:18:47.635Z,77.50
2022-11-24T00:21:16.108Z,78.31
2022-11-24T00:26:12.189Z,81.79
2022-11-24T00:28:40.515Z,81.60
2022-11-24T00:31:21.090Z,82.32
2022-11-24T00:33:50.042Z,82.79
2022-11-24T00:36:18.715Z,83.30
2022-11-24T00:38:45.794Z,83.45
2022-11-24T00:41:13.601Z,83.61
2022-11-24T00:43:40.736Z,82.80
2022-11-24T00:46:07.809Z,82.11
2022-11-24T00:48:35.166Z,82.74
2022-11-24T00:51:05.534Z,82.83
2022-11-24T00:53:32.633Z,83.90
2022-11-24T00:55:59.643Z,82.58
2022-11-24T00:58:26.872Z,82.84
2022-11-24T01:00:53.875Z,82.87
2022-11-24T01:03:21.459Z,81.82
2022-11-24T01:05:48.713Z,80.44
2022-11-24T01:08:15.705Z,81.60
2022-11-24T01:10:42.744Z,81.42
2022-11-24T01:13:09.871Z,80.80
2022-11-24T01:15:36.926Z,81.46
2022-11-24T01:18:04.815Z,81.71
2022-11-24T01:20:32.692Z,81.83
2022-11-24T01:23:18.547Z,82.47
2022-11-24T01:25:45.509Z,80.75
2022-11-24T01:28:12.481Z,80.75
2022-11-24T01:30:39.486Z,80.93
2022-11-24T01:33:06.514Z,78.53
2022-11-24T01:35:33.499Z,78.89
2022-11-24T01:38:00.449Z,78.84
2022-11-24T01:40:27.406Z,77.36
2022-11-24T01:42:54.447Z,76.18
2022-11-24T01:45:33.088Z,77.19
2022-11-24T01:48:04.575Z,76.21
2022-11-24T01:50:32.932Z,76.49
2022-11-24T01:53:00.080Z,75.88
2022-11-24T01:55:32.571Z,77.07
2022-11-24T01:58:24.260Z,77.10
2022-11-24T02:00:52.196Z,77.44
2022-11-24T02:03:25.782Z,78.58
2022-11-24T02:06:01.714Z,77.26
2022-11-24T02:08:51.254Z,77.87
2022-11-24T02:11:20.503Z,78.03
2022-11-24T02:13:48.938Z,78.64
2022-11-24T02:16:15.954Z,78.78
2022-11-24T02:18:43.968Z,78.41
2022-11-24T02:21:13.798Z,77.58
2022-11-24T02:24:28.148Z,79.37
2022-11-24T02:26:55.234Z,81.00
2022-11-24T02:29:22.464Z,79.33
2022-11-24T02:31:55.237Z,80.74
2022-11-24T02:34:22.212Z,86.12
2022-11-24T02:36:49.224Z,83.72
2022-11-24T02:39:16.783Z,82.46
2022-11-24T02:41:49.995Z,80.36
2022-11-24T02:44:20.175Z,84.86
2022-11-24T02:46:47.137Z,84.58
2022-11-24T02:49:14.080Z,84.37
2022-11-24T02:51:41.022Z,84.18
2022-11-24T02:54:08.066Z,83.52
2022-11-24T02:56:35.100Z,81.60
2022-11-24T02:59:02.072Z,83.77
2022-11-24T03:01:29.101Z,84.73
2022-11-24T03:03:56.181Z,83.76
2022-11-24T03:06:23.138Z,84.37
2022-11-24T03:08:50.218Z,85.27
2022-11-24T03:11:17.165Z,83.72
2022-11-24T03:13:46.416Z,85.17
2022-11-24T03:16:13.462Z,84.67
2022-11-24T03:18:40.465Z,87.11
2022-11-24T03:21:07.478Z,86.77
2022-11-24T03:23:34.489Z,87.43
2022-11-24T03:26:09.235Z,87.03
2022-11-24T03:28:36.322Z,86.93
2022-11-24T03:31:03.842Z,84.29
2022-11-24T03:33:30.943Z,84.31
2022-11-24T03:35:58.296Z,82.10
2022-11-24T03:38:25.383Z,81.31
2022-11-24T03:40:52.565Z,82.00
2022-11-24T03:43:19.783Z,81.00
2022-11-24T03:45:48.043Z,83.00
2022-11-24T03:48:16.769Z,80.53
2022-11-24T03:50:52.081Z,80.60
2022-11-24T03:53:19.050Z,81.38
2022-11-24T03:55:46.062Z,82.58
2022-11-24T03:58:13.030Z,81.73
2022-11-24T04:00:40.199Z,83.08
2022-11-24T04:03:07.284Z,83.61
2022-11-24T04:05:36.434Z,82.14
2022-11-24T04:08:05.463Z,82.73
2022-11-24T04:10:35.935Z,81.11
2022-11-24T04:13:04.494Z,80.45
2022-11-24T04:15:31.479Z,81.39
2022-11-24T04:17:58.456Z,81.52
2022-11-24T04:20:25.476Z,82.26
2022-11-24T04:22:52.504Z,84.37
2022-11-24T04:25:19.690Z,81.45
2022-11-24T04:27:51.767Z,79.79
2022-11-24T04:30:19.735Z,81.17
2022-11-24T04:32:47.146Z,80.99
2022-11-24T04:35:14.434Z,81.20
2022-11-24T04:37:41.992Z,80.11
2022-11-24T04:40:10.746Z,80.67
2022-11-24T04:42:38.265Z,80.22
2022-11-24T04:45:07.885Z,80.91
2022-11-24T04:47:35.170Z,81.58
2022-11-24T04:50:02.227Z,82.57
2022-11-24T04:52:30.200Z,82.40
2022-11-24T04:54:57.232Z,78.89
2022-11-24T04:57:26.323Z,78.64
2022-11-24T04:59:54.283Z,78.31
2022-11-24T05:02:21.817Z,76.11
2022-11-24T05:04:49.040Z,75.78
2022-11-24T05:07:19.182Z,74.67
2022-11-24T05:10:06.034Z,76.96
2022-11-24T05:12:33.126Z,74.84
2022-11-24T05:15:05.117Z,74.81
2022-11-24T05:17:34.645Z,75.38
2022-11-24T05:20:02.471Z,75.50
2022-11-24T05:22:31.712Z,74.91
2022-11-24T05:24:58.809Z,75.40
2022-11-24T05:27:25.811Z,77.10
2022-11-24T05:29:52.781Z,79.26
2022-11-24T05:32:20.294Z,78.42
2022-11-24T05:34:48.008Z,78.83
2022-11-24T05:37:15.014Z,79.83
2022-11-24T05:39:42.001Z,79.60
2022-11-24T05:42:28.939Z,80.78
2022-11-24T05:44:55.962Z,79.20
2022-11-24T05:47:23.201Z,79.72
2022-11-24T05:49:50.192Z,79.15
2022-11-24T05:52:17.306Z,79.87
2022-11-24T05:54:44.476Z,80.88
2022-11-24T05:57:11.437Z,80.26
2022-11-24T05:59:38.430Z,78.81
2022-11-24T06:02:05.544Z,79.70
2022-11-24T06:04:33.111Z,79.38
2022-11-24T06:07:00.289Z,80.18
2022-11-24T06:09:28.077Z,79.46
2022-11-24T06:11:55.612Z,78.59
2022-11-24T06:14:22.666Z,79.11
2022-11-24T06:16:49.748Z,78.04
2022-11-24T06:19:16.760Z,80.24
2022-11-24T06:21:43.776Z,80.68
2022-11-24T06:24:10.871Z,80.41
2022-11-24T06:26:37.875Z,81.64
2022-11-24T06:29:05.114Z,81.19
2022-11-24T06:31:32.603Z,81.57
2022-11-24T06:34:00.816Z,82.15
2022-11-24T06:36:28.008Z,81.69
2022-11-24T06:38:54.979Z,83.02
2022-11-24T06:41:21.991Z,84.67
2022-11-24T06:43:50.330Z,84.47
2022-11-24T06:46:18.015Z,87.27
2022-11-24T06:48:45.065Z,86.59
2022-11-24T06:51:13.931Z,85.04
2022-11-24T06:53:41.615Z,86.81
2022-11-24T06:56:16.797Z,86.15
2022-11-24T06:58:46.413Z,86.29
2022-11-24T07:01:28.335Z,86.79
2022-11-24T07:03:57.023Z,85.42
2022-11-24T07:06:25.833Z,84.81
2022-11-24T07:08:53.178Z,86.23
2022-11-24T07:11:23.506Z,85.63
2022-11-24T07:13:58.304Z,85.25
2022-11-24T07:16:28.250Z,84.30
2022-11-24T07:18:55.617Z,81.65
2022-11-24T07:21:25.087Z,82.73
2022-11-24T07:23:53.648Z,81.53
2022-11-24T07:26:21.739Z,80.62
2022-11-24T07:28:48.881Z,78.47
2022-11-24T07:31:19.044Z,80.16
2022-11-24T07:33:55.164Z,79.54
2022-11-24T07:36:23.226Z,81.75
2022-11-24T07:38:50.786Z,83.19
2022-11-24T07:41:19.779Z,83.14
2022-11-24T07:43:47.928Z,82.64
2022-11-24T07:46:17.459Z,79.85
2022-11-24T07:48:45.382Z,80.02
2022-11-24T07:51:12.764Z,81.64
2022-11-24T07:53:40.093Z,77.93
2022-11-24T07:56:07.720Z,77.55
2022-11-24T07:58:36.956Z,78.35
2022-11-24T08:01:30.430Z,81.47
2022-11-24T08:03:57.556Z,81.25
2022-11-24T08:06:28.576Z,80.01
2022-11-24T08:08:56.588Z,81.31
2022-11-24T08:11:24.214Z,80.40
2022-11-24T08:13:51.316Z,79.21
2022-11-24T08:16:20.605Z,80.26
2022-11-24T08:18:52.879Z,81.91
2022-11-24T08:21:20.499Z,82.59
2022-11-24T08:23:48.009Z,82.93
2022-11-24T08:26:18.082Z,81.05
2022-11-24T08:28:46.828Z,80.41
2022-11-24T08:31:16.812Z,79.30
2022-11-24T08:33:43.844Z,81.15
2022-11-24T08:36:13.439Z,79.50
2022-11-24T08:38:40.672Z,79.73
2022-11-24T08:41:10.961Z,80.37
2022-11-24T08:43:38.618Z,82.08
2022-11-24T08:46:08.538Z,81.46
2022-11-24T08:48:35.950Z,82.53
2022-11-24T08:51:23.628Z,83.69
2022-11-24T08:53:54.893Z,82.47
2022-11-24T08:56:21.866Z,81.33
2022-11-24T08:58:49.087Z,81.20
2022-11-24T09:01:17.915Z,80.69
2022-11-24T09:03:50.616Z,78.53
2022-11-24T09:06:31.029Z,77.91
2022-11-24T09:08:59.887Z,79.03
2022-11-24T09:11:27.588Z,81.03
2022-11-24T09:13:55.699Z,82.67
2022-11-24T09:16:26.378Z,82.62
2022-11-24T09:19:05.822Z,83.29
2022-11-24T09:21:34.446Z,82.85
2022-11-24T09:24:06.087Z,80.51
2022-11-24T09:26:36.163Z,81.59
2022-11-24T09:29:05.348Z,83.23
2022-11-24T09:31:34.540Z,83.04
2022-11-24T09:34:03.448Z,82.80
2022-11-24T09:36:31.983Z,81.66
2022-11-24T09:38:59.721Z,81.81
2022-11-24T09:42:03.228Z,82.29
2022-11-24T09:45:01.343Z,80.09
2022-11-24T09:47:57.306Z,77.85
2022-11-24T09:50:35.623Z,76.78
2022-11-24T09:53:22.830Z,76.80
2022-11-24T09:55:51.955Z,80.12
2022-11-24T09:58:30.379Z,82.81
2022-11-24T10:00:58.780Z,84.73
2022-11-24T10:03:41.943Z,81.79
2022-11-24T10:06:31.884Z,81.96
2022-11-24T10:09:11.572Z,82.54
2022-11-24T10:11:49.932Z,82.41
2022-11-24T10:14:26.062Z,83.79
2022-11-24T10:17:17.938Z,83.28
2022-11-24T10:20:03.095Z,81.90
2022-11-24T10:22:42.600Z,82.91
2022-11-24T10:25:39.308Z,85.26
2022-11-24T10:28:13.545Z,86.29
2022-11-24T10:30:40.964Z,85.32
2022-11-24T10:33:25.538Z,86.43
2022-11-24T10:36:06.657Z,84.28
2022-11-24T10:38:51.771Z,83.72
2022-11-24T10:41:50.194Z,84.79
2022-11-24T10:44:17.160Z,85.67
2022-11-24T10:46:44.598Z,85.58
2022-11-24T10:49:32.266Z,85.89
2022-11-24T10:52:07.236Z,84.20
2022-11-24T10:54:36.181Z,81.81
2022-11-24T10:57:04.007Z,81.63
2022-11-24T10:59:36.155Z,81.80
2022-11-24T11:02:33.983Z,81.00
2022-11-24T11:05:35.412Z,79.71
2022-11-24T11:08:14.401Z,80.18
2022-11-24T11:10:45.193Z,79.99
2022-11-24T11:13:26.397Z,78.35
2022-11-24T11:15:54.633Z,77.33
2022-11-24T11:18:23.076Z,77.09
2022-11-24T11:20:56.158Z,77.31
2022-11-24T11:23:29.183Z,76.46
2022-11-24T11:26:18.014Z,78.14
2022-11-24T11:35:12.597Z,83.20
2022-11-24T11:37:40.470Z,83.18
2022-11-24T11:40:16.503Z,82.72
2022-11-24T11:43:13.211Z,80.76
2022-11-24T11:45:46.764Z,80.73
2022-11-24T11:48:46.410Z,79.55
2022-11-24T11:51:47.485Z,79.16
2022-11-24T11:54:53.973Z,80.68
2022-11-24T11:57:35.051Z,83.53
2022-11-24T12:00:12.389Z,84.64
2022-11-24T12:03:13.133Z,84.53
2022-11-24T12:06:08.052Z,84.16
2022-11-24T12:09:18.594Z,84.85
2022-11-24T12:11:52.000Z,85.83
2022-11-24T12:14:31.458Z,85.97
2022-11-24T12:17:10.491Z,87.42
2022-11-24T12:19:58.764Z,87.28
2022-11-24T12:23:11.335Z,85.21
2022-11-24T12:25:47.958Z,84.48
2022-11-24T12:28:20.999Z,86.60
2022-11-24T12:31:03.257Z,87.32
2022-11-24T12:34:01.200Z,87.02
2022-11-24T12:36:37.552Z,87.95
2022-11-24T12:39:19.812Z,89.86
2022-11-24T12:42:15.523Z,88.67
2022-11-24T12:45:02.369Z,89.79
2022-11-24T12:47:48.585Z,89.28
2022-11-24T12:50:26.624Z,89.70
2022-11-24T12:53:00.940Z,90.17
2022-11-24T12:55:30.116Z,89.71
2022-11-24T12:58:11.475Z,88.30
2022-11-24T13:01:10.333Z,87.65
2022-11-24T13:04:01.103Z,85.20
2022-11-24T13:06:49.915Z,86.86
2022-11-24T13:09:17.221Z,89.06
2022-11-24T13:11:44.335Z,89.32
2022-11-24T13:14:28.458Z,88.10
2022-11-24T13:19:51.559Z,87.21
2022-11-24T13:22:24.233Z,85.70
2022-11-24T13:25:29.090Z,83.42
2022-11-24T13:28:01.092Z,82.32
2022-11-24T13:30:34.271Z,81.79
2022-11-24T13:33:16.804Z,81.93
2022-11-24T13:36:25.508Z,84.27
2022-11-24T13:38:53.848Z,85.44
2022-11-24T13:41:33.077Z,87.57
2022-11-24T13:44:15.380Z,90.27
2022-11-24T13:47:26.570Z,88.34
2022-11-24T13:49:53.753Z,87.48
2022-11-24T13:52:38.916Z,87.50
2022-11-24T13:55:12.533Z,85.42
2022-11-24T13:57:48.639Z,86.40
2022-11-24T14:00:27.055Z,87.10
2022-11-24T14:02:59.670Z,86.41
2022-11-24T14:05:39.763Z,86.88
2022-11-24T14:08:16.529Z,86.50
2022-11-24T14:10:43.753Z,84.36
2022-11-24T14:13:23.227Z,85.80
2022-11-24T14:16:23.782Z,85.34
2022-11-24T14:18:52.230Z,83.10
2022-11-24T14:21:30.271Z,83.42
2022-11-24T14:24:00.655Z,83.96
2022-11-24T14:26:36.350Z,85.28
2022-11-24T14:29:16.203Z,85.64
2022-11-24T14:31:51.981Z,86.33
2022-11-24T14:34:21.315Z,84.52
2022-11-24T14:36:50.238Z,83.94
2022-11-24T14:39:19.905Z,84.90
2022-11-24T14:41:51.718Z,83.27
2022-11-24T14:44:40.117Z,81.87
2022-11-24T14:47:15.250Z,82.95
2022-11-24T14:49:43.286Z,84.01
2022-11-24T14:52:16.546Z,83.80
2022-11-24T14:54:52.262Z,82.30
2022-11-24T14:57:37.274Z,83.03
2022-11-24T15:00:13.220Z,82.36
2022-11-24T15:02:48.414Z,82.88
2022-11-24T15:05:16.699Z,83.40
2022-11-24T15:07:48.200Z,83.42
2022-11-24T15:10:33.473Z,80.66
2022-11-24T15:13:03.691Z,81.43
2022-11-24T15:15:40.112Z,84.38
2022-11-24T15:18:25.883Z,84.61
2022-11-24T15:20:53.566Z,83.69
2022-11-24T15:23:31.410Z,83.68
2022-11-24T15:26:01.411Z,83.01
2022-11-24T15:28:30.336Z,82.19
2022-11-24T15:31:01.875Z,81.58
2022-11-24T15:33:29.658Z,80.08
2022-11-24T15:35:57.329Z,80.90
2022-11-24T15:38:24.448Z,81.18
2022-11-24T15:40:53.861Z,80.69
2022-11-24T15:43:34.618Z,80.33
2022-11-24T15:46:03.664Z,81.20
2022-11-24T15:48:31.085Z,81.09
2022-11-24T15:51:01.690Z,80.15
2022-11-24T15:53:28.652Z,80.77
2022-11-24T15:55:57.181Z,79.17
2022-11-24T15:58:24.580Z,79.25
2022-11-24T16:00:53.712Z,79.78
2022-11-24T16:06:23.752Z,80.88
2022-11-24T16:08:51.581Z,80.57
2022-11-24T16:11:18.578Z,80.28
2022-11-24T16:13:51.574Z,79.96
2022-11-24T16:16:21.053Z,81.15
2022-11-24T16:18:48.420Z,80.51
2022-11-24T16:21:16.870Z,79.04
2022-11-24T16:23:44.049Z,79.99
2022-11-24T16:26:11.051Z,79.88
2022-11-24T16:28:38.065Z,80.95
2022-11-24T16:31:05.308Z,81.34
2022-11-24T16:33:32.523Z,81.18
2022-11-24T16:35:59.482Z,81.60
2022-11-24T16:38:27.599Z,80.59
2022-11-24T16:40:58.571Z,79.29
2022-11-24T16:43:25.609Z,79.44
2022-11-24T16:46:21.281Z,80.35
2022-11-24T16:48:51.010Z,79.82
2022-11-24T16:51:19.927Z,80.81
2022-11-24T16:53:47.194Z,80.95
2022-11-24T16:56:17.627Z,81.04
2022-11-24T16:58:44.701Z,79.53
2022-11-24T17:01:13.538Z,80.72
2022-11-24T17:03:41.002Z,81.94
2022-11-24T17:06:11.599Z,82.31
2022-11-24T17:08:41.075Z,82.36
2022-11-24T17:11:16.031Z,81.45
2022-11-24T17:13:45.545Z,80.98
2022-11-24T17:16:18.027Z,82.26
2022-11-24T17:18:45.934Z,84.51
2022-11-24T17:21:21.851Z,85.05
2022-11-24T17:23:55.556Z,84.00
2022-11-24T17:26:22.836Z,84.76
2022-11-24T17:28:49.869Z,84.90
2022-11-24T17:31:25.886Z,84.32
2022-11-24T17:33:54.869Z,85.14
2022-11-24T17:36:22.615Z,85.00
2022-11-24T17:38:50.064Z,83.95
2022-11-24T17:41:18.436Z,83.45
2022-11-24T17:43:51.191Z,84.03
2022-11-24T17:46:18.762Z,84.16
2022-11-24T17:48:47.033Z,84.90
2022-11-24T17:51:17.123Z,82.86
2022-11-24T17:53:46.550Z,81.81
2022-11-24T17:56:19.247Z,81.16
2022-11-24T17:58:46.362Z,80.98
2022-11-24T18:01:13.637Z,80.52
2022-11-24T18:03:41.717Z,80.75
2022-11-24T18:06:11.556Z,81.54
2022-11-24T18:08:41.290Z,81.74
2022-11-24T18:11:14.170Z,82.92
2022-11-24T18:13:58.390Z,81.43
2022-11-24T18:16:28.400Z,80.93
2022-11-24T18:19:07.825Z,79.13
2022-11-24T18:21:40.665Z,79.90
2022-11-24T18:24:11.966Z,80.84
2022-11-24T18:26:40.338Z,81.62
2022-11-24T18:29:08.012Z,80.54
2022-11-24T18:31:35.905Z,77.61
2022-11-24T18:34:05.388Z,78.77
2022-11-24T18:36:33.373Z,78.91
2022-11-24T18:39:02.012Z,80.57
2022-11-24T18:41:29.090Z,80.78
2022-11-24T18:43:56.236Z,80.32
2022-11-24T18:46:23.288Z,80.76
2022-11-24T18:48:52.072Z,80.56
2022-11-24T18:51:19.178Z,81.05
2022-11-24T18:53:46.693Z,81.20
2022-11-24T18:56:17.576Z,80.26
2022-11-24T18:58:44.712Z,80.60
2022-11-24T19:01:17.001Z,80.20
2022-11-24T19:03:49.047Z,79.75
2022-11-24T19:06:17.670Z,79.13
2022-11-24T19:08:45.309Z,80.17
2022-11-24T19:11:20.271Z,81.01
2022-11-24T19:13:48.850Z,80.51
2022-11-24T19:16:17.445Z,79.39
2022-11-24T19:18:50.226Z,78.24
2022-11-24T19:21:20.063Z,78.99
2022-11-24T19:23:47.131Z,79.16
2022-11-24T19:26:15.517Z,79.97
2022-11-24T19:28:43.925Z,79.26
2022-11-24T19:31:13.636Z,78.42
2022-11-24T19:33:41.501Z,78.61
2022-11-24T19:36:12.416Z,78.87
2022-11-24T19:38:39.501Z,78.69
2022-11-24T19:41:12.468Z,78.69
2022-11-24T19:43:40.641Z,78.47
2022-11-24T19:46:13.310Z,78.78
2022-11-24T19:48:51.210Z,79.72
2022-11-24T19:51:20.981Z,81.92
2022-11-24T19:53:49.406Z,81.36
2022-11-24T19:56:21.688Z,79.69
2022-11-24T19:58:50.176Z,81.00
2022-11-24T20:01:26.460Z,79.97
2022-11-24T20:03:58.717Z,79.37
2022-11-24T20:06:28.006Z,78.69
2022-11-24T20:08:58.713Z,79.45
2022-11-24T20:11:25.789Z,78.69
2022-11-24T20:13:54.691Z,79.93
2022-11-24T20:16:28.279Z,79.14
2022-11-24T20:18:57.775Z,79.53
2022-11-24T20:21:33.123Z,77.83
2022-11-24T20:24:07.025Z,77.80
2022-11-24T20:26:37.055Z,79.26
2022-11-24T20:29:04.935Z,78.32
2022-11-24T20:31:35.565Z,79.50
2022-11-24T20:34:04.577Z,79.43
2022-11-24T20:36:34.144Z,79.56
2022-11-24T20:39:04.270Z,80.11
2022-11-24T20:41:34.651Z,80.00
2022-11-24T20:44:05.111Z,80.67
2022-11-24T20:46:33.772Z,79.80
2022-11-24T20:49:01.313Z,80.10
2022-11-24T20:51:31.080Z,80.21
2022-11-24T20:54:01.064Z,80.85
2022-11-24T20:56:31.212Z,82.64
2022-11-24T20:58:58.745Z,82.89
2022-11-24T21:01:28.873Z,82.02
2022-11-24T21:03:58.465Z,81.59
2022-11-24T21:06:28.004Z,80.62
2022-11-24T21:09:00.473Z,81.10
2022-11-24T21:11:30.913Z,81.69
2022-11-24T21:13:57.914Z,79.80
2022-11-24T21:16:29.742Z,82.25
2022-11-24T21:18:59.021Z,85.00
2022-11-24T21:21:33.553Z,84.57
2022-11-24T21:24:06.173Z,83.77
2022-11-24T21:26:37.145Z,84.31
2022-11-24T21:29:04.905Z,83.78
2022-11-24T21:31:36.813Z,84.21
2022-11-24T21:34:07.713Z,82.74
2022-11-24T21:36:35.993Z,82.82
2022-11-24T21:39:04.302Z,82.91
2022-11-24T21:41:34.037Z,81.15
2022-11-24T21:44:01.606Z,81.62
2022-11-24T21:46:39.027Z,82.30
2022-11-24T21:49:09.446Z,84.06
2022-11-24T21:51:36.544Z,84.97
2022-11-24T21:54:03.579Z,84.49
2022-11-24T21:56:30.583Z,84.25
2022-11-24T21:58:58.203Z,85.35
2022-11-24T22:01:28.208Z,84.58
2022-11-24T22:04:03.764Z,86.35
2022-11-24T22:06:32.097Z,85.70
2022-11-24T22:08:59.076Z,84.21
2022-11-24T22:11:27.039Z,84.42
2022-11-24T22:13:54.067Z,86.14
2022-11-24T22:16:24.944Z,86.72
2022-11-24T22:18:52.197Z,87.22
2022-11-24T22:21:30.750Z,86.34
2022-11-24T22:23:57.789Z,86.39
2022-11-24T22:26:26.203Z,86.19
2022-11-24T22:28:57.229Z,88.04
2022-11-24T22:31:25.398Z,88.57
2022-11-24T22:33:53.760Z,87.48
2022-11-24T22:36:24.737Z,86.84
2022-11-24T22:38:55.811Z,85.31
2022-11-24T22:41:23.517Z,83.66
2022-11-24T22:43:51.309Z,83.92
2022-11-24T22:46:21.351Z,83.70
2022-11-24T22:48:52.855Z,84.65
2022-11-24T22:51:22.116Z,84.73
2022-11-24T22:53:54.808Z,83.97
2022-11-24T22:56:22.455Z,81.67
2022-11-24T22:58:50.873Z,82.04
2022-11-24T23:01:23.799Z,82.80
2022-11-24T23:03:54.363Z,81.68
2022-11-24T23:06:29.887Z,82.39
2022-11-24T23:08:58.495Z,81.12
2022-11-24T23:11:33.822Z,81.15
2022-11-24T23:14:05.790Z,83.25
2022-11-24T23:16:32.954Z,83.68
2022-11-24T23:18:59.978Z,84.72
2022-11-24T23:21:32.276Z,85.54
2022-11-24T23:24:02.064Z,83.22
2022-11-24T23:26:32.129Z,82.47
2022-11-24T23:28:59.230Z,83.31
2022-11-24T23:31:28.859Z,81.66
2022-11-24T23:33:58.561Z,81.52
2022-11-24T23:36:27.960Z,82.12
2022-11-24T23:38:55.495Z,81.79
2022-11-24T23:41:25.265Z,81.83
2022-11-24T23:43:54.484Z,81.39
2022-11-24T23:46:30.344Z,79.54
2022-11-24T23:48:57.479Z,79.79
2022-11-24T23:51:32.596Z,78.51
2022-11-24T23:54:01.998Z,79.66
2022-11-24T23:56:34.049Z,80.85
2022-11-24T23:59:02.403Z,80.13
